createdAt,value
2018-11-13T00:00:09.416Z,1010.07
2018-11-13T00:01:09.399Z,1010.02
2018-11-13T00:02:09.380Z,1010.01
2018-11-13T00:03:09.376Z,1009.98
2018-11-13T00:04:09.370Z,1009.98
2018-11-13T00:05:09.327Z,1009.98
2018-11-13T00:06:09.312Z,1009.99
2018-11-13T00:07:09.296Z,1009.99
2018-11-13T00:08:09.288Z,1010.02
2018-11-13T00:09:09.265Z,1010.07
2018-11-13T00:10:09.410Z,1010.12
2018-11-13T00:11:09.272Z,1010.1
2018-11-13T00:12:09.212Z,1010.14
2018-11-13T00:13:09.198Z,1010.18
2018-11-13T00:14:09.180Z,1010.2
2018-11-13T00:15:09.164Z,1010.22
2018-11-13T00:16:09.147Z,1010.21
2018-11-13T00:17:09.130Z,1010.28
2018-11-13T00:18:09.114Z,1010.29
2018-11-13T00:19:09.097Z,1010.31
2018-11-13T00:20:09.135Z,1010.39
2018-11-13T00:21:09.064Z,1010.45
2018-11-13T00:22:09.048Z,1010.49
2018-11-13T00:23:09.033Z,1010.53
2018-11-13T00:24:09.376Z,1010.53
2018-11-13T00:25:09.000Z,1010.61
2018-11-13T00:26:08.984Z,1010.56
2018-11-13T00:27:08.968Z,1010.54
2018-11-13T00:28:08.955Z,1010.59
2018-11-13T00:29:08.933Z,1010.59
2018-11-13T00:30:08.917Z,1010.6
2018-11-13T00:31:08.901Z,1010.61
2018-11-13T00:32:08.887Z,1010.57
2018-11-13T00:33:08.867Z,1010.56
2018-11-13T00:34:08.850Z,1010.54
2018-11-13T00:35:08.835Z,1010.56
2018-11-13T00:36:08.819Z,1010.54
2018-11-13T00:37:08.806Z,1010.52
2018-11-13T00:38:08.786Z,1010.44
2018-11-13T00:39:08.811Z,1010.42
2018-11-13T00:40:08.754Z,1010.43
2018-11-13T00:41:08.744Z,1010.42
2018-11-13T00:42:08.730Z,1010.37
2018-11-13T00:43:08.705Z,1010.36
2018-11-13T00:44:08.687Z,1010.29
2018-11-13T00:45:08.674Z,1010.35
2018-11-13T00:46:08.790Z,1010.38
2018-11-13T00:47:08.640Z,1010.34
2018-11-13T00:48:08.657Z,1010.32
2018-11-13T00:49:08.608Z,1010.29
2018-11-13T00:50:08.592Z,1010.25
2018-11-13T00:51:08.573Z,1010.31
2018-11-13T00:52:08.559Z,1010.29
2018-11-13T00:53:08.541Z,1010.3
2018-11-13T00:54:08.729Z,1010.25
2018-11-13T00:55:08.509Z,1010.2
2018-11-13T00:56:08.491Z,1010.17
2018-11-13T00:57:08.494Z,1010.18
2018-11-13T00:58:08.458Z,1010.15
2018-11-13T00:59:08.445Z,1010.14
2018-11-13T01:00:08.441Z,1010.16
2018-11-13T01:01:08.411Z,1010.2
2018-11-13T01:02:08.760Z,1010.22
2018-11-13T01:03:08.383Z,1010.21
2018-11-13T01:04:08.359Z,1010.24
2018-11-13T01:05:08.388Z,1010.25
2018-11-13T01:06:08.328Z,1010.26
2018-11-13T01:07:08.309Z,1010.22
2018-11-13T01:08:08.295Z,1010.27
2018-11-13T01:09:08.276Z,1010.24
2018-11-13T01:10:08.259Z,1010.22
2018-11-13T01:11:08.243Z,1010.22
2018-11-13T01:12:08.231Z,1010.14
2018-11-13T01:13:08.215Z,1010.08
2018-11-13T01:14:08.196Z,1010.06
2018-11-13T01:15:08.871Z,1010.07
2018-11-13T01:16:08.161Z,1010.05
2018-11-13T01:17:08.145Z,1010.02
2018-11-13T01:18:08.127Z,1010.02
2018-11-13T01:19:08.112Z,1010.04
2018-11-13T01:20:08.096Z,1010.05
2018-11-13T01:21:08.080Z,1010.09
2018-11-13T01:22:08.064Z,1010.08
2018-11-13T01:23:08.054Z,1010.04
2018-11-13T01:24:08.030Z,1010.1
2018-11-13T01:25:08.013Z,1010.14
2018-11-13T01:26:07.998Z,1010.14
2018-11-13T01:27:07.980Z,1010.21
2018-11-13T01:28:07.962Z,1010.27
2018-11-13T01:29:07.946Z,1010.3
2018-11-13T01:30:07.931Z,1010.34
2018-11-13T01:31:07.915Z,1010.38
2018-11-13T01:32:07.899Z,1010.42
2018-11-13T01:33:07.880Z,1010.45
2018-11-13T01:34:07.864Z,1010.5
2018-11-13T01:35:07.951Z,1010.42
2018-11-13T01:36:07.832Z,1010.38
2018-11-13T01:37:07.813Z,1010.35
2018-11-13T01:38:07.820Z,1010.32
2018-11-13T01:39:07.784Z,1010.3
2018-11-13T01:40:07.766Z,1010.28
2018-11-13T01:41:07.749Z,1010.25
2018-11-13T01:42:07.731Z,1010.27
2018-11-13T01:43:07.721Z,1010.24
2018-11-13T01:44:07.701Z,1010.21
2018-11-13T01:45:07.686Z,1010.19
2018-11-13T01:46:07.666Z,1010.23
2018-11-13T01:47:07.650Z,1010.24
2018-11-13T01:48:08.163Z,1010.2
2018-11-13T01:49:07.621Z,1010.24
2018-11-13T01:50:07.603Z,1010.27
2018-11-13T01:51:07.582Z,1010.25
2018-11-13T01:52:07.571Z,1010.34
2018-11-13T01:53:07.550Z,1010.34
2018-11-13T01:54:07.545Z,1010.35
2018-11-13T01:55:07.517Z,1010.37
2018-11-13T01:56:07.502Z,1010.35
2018-11-13T01:57:07.603Z,1010.36
2018-11-13T01:58:07.468Z,1010.44
2018-11-13T01:59:07.485Z,1010.4
2018-11-13T02:00:07.436Z,1010.43
2018-11-13T02:01:07.419Z,1010.48
2018-11-13T02:02:07.404Z,1010.49
2018-11-13T02:03:07.386Z,1010.57
2018-11-13T02:04:07.367Z,1010.59
2018-11-13T02:05:07.353Z,1010.62
2018-11-13T02:06:07.335Z,1010.63
2018-11-13T02:07:07.318Z,1010.58
2018-11-13T02:08:07.333Z,1010.58
2018-11-13T02:09:07.285Z,1010.49
2018-11-13T02:10:07.269Z,1010.48
2018-11-13T02:11:07.256Z,1010.44
2018-11-13T02:12:07.237Z,1010.46
2018-11-13T02:13:07.220Z,1010.45
2018-11-13T02:14:07.206Z,1010.49
2018-11-13T02:15:07.190Z,1010.49
2018-11-13T02:16:07.172Z,1010.49
2018-11-13T02:17:07.162Z,1010.47
2018-11-13T02:18:07.137Z,1010.5
2018-11-13T02:19:07.120Z,1010.51
2018-11-13T02:20:07.104Z,1010.57
2018-11-13T02:21:07.086Z,1010.6
2018-11-13T02:22:07.071Z,1010.67
2018-11-13T02:23:07.055Z,1010.65
2018-11-13T02:24:07.039Z,1010.6
2018-11-13T02:25:07.022Z,1010.57
2018-11-13T02:26:07.003Z,1010.52
2018-11-13T02:27:06.988Z,1010.48
2018-11-13T02:28:06.971Z,1010.43
2018-11-13T02:29:06.955Z,1010.39
2018-11-13T02:30:06.941Z,1010.33
2018-11-13T02:31:07.001Z,1010.27
2018-11-13T02:32:06.954Z,1010.21
2018-11-13T02:33:06.886Z,1010.19
2018-11-13T02:34:06.873Z,1010.25
2018-11-13T02:35:06.858Z,1010.21
2018-11-13T02:36:06.845Z,1010.19
2018-11-13T02:37:06.822Z,1010.19
2018-11-13T02:38:06.807Z,1010.16
2018-11-13T02:39:06.788Z,1010.15
2018-11-13T02:40:06.770Z,1010.2
2018-11-13T02:41:06.753Z,1010.16
2018-11-13T02:42:06.737Z,1010.19
2018-11-13T02:43:06.719Z,1010.26
2018-11-13T02:44:06.707Z,1010.27
2018-11-13T02:45:06.685Z,1010.35
2018-11-13T02:46:06.669Z,1010.38
2018-11-13T02:47:06.680Z,1010.41
2018-11-13T02:48:06.637Z,1010.44
2018-11-13T02:49:06.629Z,1010.5
2018-11-13T02:50:06.619Z,1010.55
2018-11-13T02:51:06.585Z,1010.55
2018-11-13T02:52:06.568Z,1010.55
2018-11-13T02:53:06.553Z,1010.51
2018-11-13T02:54:06.737Z,1010.49
2018-11-13T02:55:06.516Z,1010.4
2018-11-13T02:56:06.501Z,1010.39
2018-11-13T02:57:06.488Z,1010.33
2018-11-13T02:58:06.478Z,1010.27
2018-11-13T02:59:06.450Z,1010.25
2018-11-13T03:00:06.433Z,1010.22
2018-11-13T03:01:06.416Z,1010.23
2018-11-13T03:02:06.400Z,1010.23
2018-11-13T03:03:06.382Z,1010.27
2018-11-13T03:04:06.367Z,1010.23
2018-11-13T03:05:06.349Z,1010.2
2018-11-13T03:06:06.330Z,1010.21
2018-11-13T03:07:06.315Z,1010.17
2018-11-13T03:08:06.297Z,1010.23
2018-11-13T03:09:06.283Z,1010.2
2018-11-13T03:10:06.264Z,1010.25
2018-11-13T03:11:06.249Z,1010.17
2018-11-13T03:12:06.232Z,1010.2
2018-11-13T03:13:06.215Z,1010.23
2018-11-13T03:14:06.196Z,1010.24
2018-11-13T03:15:06.180Z,1010.25
2018-11-13T03:16:06.171Z,1010.29
2018-11-13T03:17:06.145Z,1010.28
2018-11-13T03:18:06.128Z,1010.33
2018-11-13T03:19:06.115Z,1010.34
2018-11-13T03:20:06.098Z,1010.33
2018-11-13T03:21:06.078Z,1010.37
2018-11-13T03:22:06.062Z,1010.4
2018-11-13T03:23:06.046Z,1010.48
2018-11-13T03:24:06.032Z,1010.48
2018-11-13T03:25:06.014Z,1010.43
2018-11-13T03:26:05.994Z,1010.37
2018-11-13T03:27:05.979Z,1010.31
2018-11-13T03:28:05.960Z,1010.28
2018-11-13T03:29:05.946Z,1010.29
2018-11-13T03:30:05.927Z,1010.34
2018-11-13T03:31:05.961Z,1010.39
2018-11-13T03:32:05.900Z,1010.41
2018-11-13T03:33:05.884Z,1010.45
2018-11-13T03:34:05.860Z,1010.48
2018-11-13T03:35:05.849Z,1010.5
2018-11-13T03:36:05.827Z,1010.5
2018-11-13T03:37:05.808Z,1010.51
2018-11-13T03:38:05.793Z,1010.48
2018-11-13T03:39:05.833Z,1010.5
2018-11-13T03:40:05.760Z,1010.55
2018-11-13T03:41:05.745Z,1010.57
2018-11-13T03:42:05.726Z,1010.57
2018-11-13T03:43:05.709Z,1010.57
2018-11-13T03:44:05.691Z,1010.61
2018-11-13T03:45:05.674Z,1010.57
2018-11-13T03:46:05.658Z,1010.58
2018-11-13T03:47:05.642Z,1010.61
2018-11-13T03:48:05.625Z,1010.54
2018-11-13T03:49:05.609Z,1010.51
2018-11-13T03:50:05.589Z,1010.46
2018-11-13T03:51:05.575Z,1010.44
2018-11-13T03:52:05.557Z,1010.46
2018-11-13T03:53:05.540Z,1010.54
2018-11-13T03:54:05.537Z,1010.67
2018-11-13T03:55:05.507Z,1010.7
2018-11-13T03:56:05.492Z,1010.74
2018-11-13T03:57:05.471Z,1010.74
2018-11-13T03:58:05.454Z,1010.66
2018-11-13T03:59:05.438Z,1010.62
2018-11-13T04:00:05.421Z,1010.63
2018-11-13T04:01:05.403Z,1010.67
2018-11-13T04:02:05.387Z,1010.77
2018-11-13T04:03:05.373Z,1010.81
2018-11-13T04:04:05.359Z,1010.81
2018-11-13T04:05:05.336Z,1010.85
2018-11-13T04:06:05.318Z,1010.86
2018-11-13T04:07:05.304Z,1010.88
2018-11-13T04:08:05.286Z,1010.86
2018-11-13T04:09:05.268Z,1010.82
2018-11-13T04:10:05.254Z,1010.82
2018-11-13T04:11:05.246Z,1010.77
2018-11-13T04:12:05.221Z,1010.78
2018-11-13T04:13:05.201Z,1010.72
2018-11-13T04:14:05.188Z,1010.71
2018-11-13T04:15:05.171Z,1010.64
2018-11-13T04:16:05.156Z,1010.69
2018-11-13T04:17:05.134Z,1010.76
2018-11-13T04:18:05.117Z,1010.78
2018-11-13T04:19:05.101Z,1010.77
2018-11-13T04:20:05.083Z,1010.75
2018-11-13T04:21:05.066Z,1010.8
2018-11-13T04:22:05.050Z,1010.83
2018-11-13T04:23:05.032Z,1010.88
2018-11-13T04:24:05.015Z,1010.76
2018-11-13T04:25:05.007Z,1010.74
2018-11-13T04:26:05.008Z,1010.71
2018-11-13T04:27:04.976Z,1010.71
2018-11-13T04:28:04.947Z,1010.71
2018-11-13T04:29:04.931Z,1010.71
2018-11-13T04:30:04.913Z,1010.76
2018-11-13T04:31:04.895Z,1010.74
2018-11-13T04:32:04.882Z,1010.76
2018-11-13T04:33:04.862Z,1010.8
2018-11-13T04:34:04.845Z,1010.8
2018-11-13T04:35:04.829Z,1010.82
2018-11-13T04:36:04.811Z,1010.82
2018-11-13T04:37:04.803Z,1010.84
2018-11-13T04:38:04.775Z,1010.84
2018-11-13T04:39:04.761Z,1010.84
2018-11-13T04:40:04.744Z,1010.79
2018-11-13T04:41:04.726Z,1010.76
2018-11-13T04:42:04.709Z,1010.7
2018-11-13T04:43:04.697Z,1010.68
2018-11-13T04:44:04.676Z,1010.7
2018-11-13T04:45:04.658Z,1010.67
2018-11-13T04:46:04.641Z,1010.62
2018-11-13T04:47:04.629Z,1010.55
2018-11-13T04:48:04.608Z,1010.53
2018-11-13T04:49:04.591Z,1010.58
2018-11-13T04:50:04.573Z,1010.62
2018-11-13T04:51:04.556Z,1010.7
2018-11-13T04:52:04.547Z,1010.67
2018-11-13T04:53:04.524Z,1010.7
2018-11-13T04:54:04.708Z,1010.69
2018-11-13T04:55:04.488Z,1010.74
2018-11-13T04:56:04.472Z,1010.66
2018-11-13T04:57:04.454Z,1010.67
2018-11-13T04:58:04.439Z,1010.61
2018-11-13T04:59:04.424Z,1010.66
2018-11-13T05:00:04.407Z,1010.6
2018-11-13T05:01:04.385Z,1010.62
2018-11-13T05:02:04.370Z,1010.61
2018-11-13T05:03:04.456Z,1010.63
2018-11-13T05:04:04.340Z,1010.67
2018-11-13T05:05:04.321Z,1010.7
2018-11-13T05:06:04.302Z,1010.74
2018-11-13T05:07:04.284Z,1010.71
2018-11-13T05:08:04.268Z,1010.72
2018-11-13T05:09:04.453Z,1010.71
2018-11-13T05:10:04.244Z,1010.77
2018-11-13T05:11:04.216Z,1010.79
2018-11-13T05:12:04.201Z,1010.84
2018-11-13T05:13:04.182Z,1010.78
2018-11-13T05:14:04.165Z,1010.87
2018-11-13T05:15:04.149Z,1010.87
2018-11-13T05:16:04.131Z,1010.95
2018-11-13T05:17:04.115Z,1010.96
2018-11-13T05:18:04.096Z,1011.03
2018-11-13T05:19:04.085Z,1011.01
2018-11-13T05:20:04.081Z,1011.08
2018-11-13T05:21:04.046Z,1011.08
2018-11-13T05:22:04.029Z,1011.16
2018-11-13T05:23:04.055Z,1011.18
2018-11-13T05:24:03.997Z,1011.21
2018-11-13T05:25:03.979Z,1011.16
2018-11-13T05:26:03.965Z,1011.13
2018-11-13T05:27:03.953Z,1011.09
2018-11-13T05:28:03.928Z,1011.1
2018-11-13T05:29:03.911Z,1011.07
2018-11-13T05:30:03.921Z,1011.09
2018-11-13T05:31:03.877Z,1011.01
2018-11-13T05:32:03.859Z,1011.02
2018-11-13T05:33:03.842Z,1010.95
2018-11-13T05:34:03.826Z,1010.96
2018-11-13T05:35:03.809Z,1010.94
2018-11-13T05:36:03.791Z,1011.07
2018-11-13T05:37:03.776Z,1011.1
2018-11-13T05:38:03.757Z,1011.19
2018-11-13T05:39:03.740Z,1011.18
2018-11-13T05:40:03.724Z,1011.14
2018-11-13T05:41:03.715Z,1011.08
2018-11-13T05:42:03.690Z,1011.1
2018-11-13T05:43:03.672Z,1011.17
2018-11-13T05:44:03.654Z,1011.11
2018-11-13T05:45:03.639Z,1011.09
2018-11-13T05:46:03.627Z,1011.08
2018-11-13T05:47:03.626Z,1011.02
2018-11-13T05:48:03.590Z,1011.03
2018-11-13T05:49:03.571Z,1011.06
2018-11-13T05:50:03.552Z,1011.14
2018-11-13T05:51:03.536Z,1011.14
2018-11-13T05:52:03.517Z,1011.13
2018-11-13T05:53:03.506Z,1011.12
2018-11-13T05:54:03.489Z,1011.24
2018-11-13T05:55:03.468Z,1011.27
2018-11-13T05:56:03.449Z,1011.28
2018-11-13T05:57:03.436Z,1011.33
2018-11-13T05:58:03.417Z,1011.36
2018-11-13T05:59:03.402Z,1011.32
2018-11-13T06:00:03.382Z,1011.36
2018-11-13T06:01:03.369Z,1011.33
2018-11-13T06:02:03.349Z,1011.26
2018-11-13T06:03:03.333Z,1011.3
2018-11-13T06:04:03.316Z,1011.3
2018-11-13T06:05:03.302Z,1011.35
2018-11-13T06:06:03.281Z,1011.31
2018-11-13T06:07:03.265Z,1011.26
2018-11-13T06:08:03.247Z,1011.32
2018-11-13T06:09:03.230Z,1011.43
2018-11-13T06:10:03.214Z,1011.44
2018-11-13T06:11:03.201Z,1011.46
2018-11-13T06:12:03.179Z,1011.46
2018-11-13T06:13:03.163Z,1011.48
2018-11-13T06:14:03.215Z,1011.47
2018-11-13T06:15:03.128Z,1011.58
2018-11-13T06:16:03.134Z,1011.56
2018-11-13T06:17:03.095Z,1011.54
2018-11-13T06:18:03.162Z,1011.57
2018-11-13T06:19:03.059Z,1011.57
2018-11-13T06:20:03.042Z,1011.58
2018-11-13T06:21:03.027Z,1011.59
2018-11-13T06:22:03.009Z,1011.58
2018-11-13T06:23:03.080Z,1011.6
2018-11-13T06:24:02.975Z,1011.59
2018-11-13T06:25:02.957Z,1011.59
2018-11-13T06:26:02.940Z,1011.6
2018-11-13T06:27:02.922Z,1011.62
2018-11-13T06:28:02.906Z,1011.6
2018-11-13T06:29:02.888Z,1011.57
2018-11-13T06:30:02.874Z,1011.61
2018-11-13T06:31:02.855Z,1011.61
2018-11-13T06:32:02.837Z,1011.61
2018-11-13T06:33:02.823Z,1011.63
2018-11-13T06:34:02.802Z,1011.66
2018-11-13T06:35:02.788Z,1011.7
2018-11-13T06:36:02.769Z,1011.69
2018-11-13T06:37:02.752Z,1011.65
2018-11-13T06:38:02.736Z,1011.73
2018-11-13T06:39:02.720Z,1011.66
2018-11-13T06:40:02.699Z,1011.7
2018-11-13T06:41:02.683Z,1011.76
2018-11-13T06:42:02.664Z,1011.78
2018-11-13T06:43:02.649Z,1011.75
2018-11-13T06:44:02.631Z,1011.78
2018-11-13T06:45:02.614Z,1011.75
2018-11-13T06:46:02.596Z,1011.75
2018-11-13T06:47:02.581Z,1011.75
2018-11-13T06:48:02.562Z,1011.81
2018-11-13T06:49:02.560Z,1011.82
2018-11-13T06:50:02.528Z,1011.8
2018-11-13T06:51:02.510Z,1011.82
2018-11-13T06:52:02.528Z,1011.85
2018-11-13T06:53:02.485Z,1011.85
2018-11-13T06:54:02.665Z,1011.84
2018-11-13T06:55:02.441Z,1011.88
2018-11-13T06:56:02.426Z,1011.9
2018-11-13T06:57:02.407Z,1011.87
2018-11-13T06:58:02.395Z,1011.91
2018-11-13T06:59:02.374Z,1011.91
2018-11-13T07:00:02.357Z,1011.86
2018-11-13T07:01:02.339Z,1011.84
2018-11-13T07:02:02.327Z,1011.81
2018-11-13T07:03:02.306Z,1011.83
2018-11-13T07:04:02.293Z,1011.9
2018-11-13T07:05:02.278Z,1011.84
2018-11-13T07:06:02.255Z,1011.85
2018-11-13T07:07:02.234Z,1011.86
2018-11-13T07:08:02.220Z,1011.86
2018-11-13T07:09:02.201Z,1011.92
2018-11-13T07:10:02.184Z,1011.94
2018-11-13T07:11:02.173Z,1011.94
2018-11-13T07:12:02.159Z,1011.95
2018-11-13T07:13:02.134Z,1012
2018-11-13T07:14:02.114Z,1012
2018-11-13T07:15:02.098Z,1012.05
2018-11-13T07:16:02.082Z,1012.04
2018-11-13T07:17:02.064Z,1012.04
2018-11-13T07:18:02.047Z,1012.08
2018-11-13T07:19:02.029Z,1012.16
2018-11-13T07:20:02.013Z,1012.16
2018-11-13T07:21:01.997Z,1012.2
2018-11-13T07:22:01.979Z,1012.2
2018-11-13T07:23:01.962Z,1012.24
2018-11-13T07:24:01.943Z,1012.28
2018-11-13T07:25:01.927Z,1012.28
2018-11-13T07:26:01.908Z,1012.27
2018-11-13T07:27:02.025Z,1012.26
2018-11-13T07:28:01.960Z,1012.26
2018-11-13T07:29:01.860Z,1012.27
2018-11-13T07:30:01.842Z,1012.24
2018-11-13T07:31:01.861Z,1012.31
2018-11-13T07:32:01.843Z,1012.32
2018-11-13T07:33:01.795Z,1012.35
2018-11-13T07:34:01.770Z,1012.35
2018-11-13T07:35:01.753Z,1012.33
2018-11-13T07:36:01.735Z,1012.39
2018-11-13T07:37:01.721Z,1012.38
2018-11-13T07:38:01.713Z,1012.39
2018-11-13T07:39:01.686Z,1012.43
2018-11-13T07:40:01.669Z,1012.47
2018-11-13T07:41:01.687Z,1012.47
2018-11-13T07:42:01.634Z,1012.47
2018-11-13T07:43:01.615Z,1012.48
2018-11-13T07:44:01.600Z,1012.5
2018-11-13T07:45:01.582Z,1012.45
2018-11-13T07:46:01.568Z,1012.49
2018-11-13T07:47:01.564Z,1012.47
2018-11-13T07:48:01.612Z,1012.48
2018-11-13T07:49:01.513Z,1012.47
2018-11-13T07:50:01.498Z,1012.43
2018-11-13T07:51:01.544Z,1012.48
2018-11-13T07:52:01.463Z,1012.49
2018-11-13T07:53:01.448Z,1012.47
2018-11-13T07:54:01.449Z,1012.46
2018-11-13T07:55:01.412Z,1012.47
2018-11-13T07:56:01.396Z,1012.5
2018-11-13T07:57:01.380Z,1012.55
2018-11-13T07:58:01.372Z,1012.49
2018-11-13T07:59:01.347Z,1012.51
2018-11-13T08:00:01.329Z,1012.48
2018-11-13T08:01:01.315Z,1012.54
2018-11-13T08:02:01.293Z,1012.55
2018-11-13T08:03:01.279Z,1012.51
2018-11-13T08:04:01.264Z,1012.55
2018-11-13T08:05:01.250Z,1012.58
2018-11-13T08:06:01.255Z,1012.57
2018-11-13T08:07:01.212Z,1012.56
2018-11-13T08:08:01.195Z,1012.66
2018-11-13T08:09:01.178Z,1012.67
2018-11-13T08:10:01.167Z,1012.62
2018-11-13T08:11:01.147Z,1012.69
2018-11-13T08:12:01.131Z,1012.63
2018-11-13T08:13:01.231Z,1012.73
2018-11-13T08:14:01.098Z,1012.68
2018-11-13T08:15:01.080Z,1012.73
2018-11-13T08:16:01.067Z,1012.9
2018-11-13T08:17:01.046Z,1012.66
2018-11-13T08:18:01.030Z,1012.7
2018-11-13T08:19:01.016Z,1012.73
2018-11-13T08:20:00.996Z,1012.68
2018-11-13T08:21:01.012Z,1012.7
2018-11-13T08:22:01.001Z,1012.78
2018-11-13T08:23:00.947Z,1012.81
2018-11-13T08:24:00.931Z,1012.79
2018-11-13T08:25:00.914Z,1012.79
2018-11-13T08:26:00.897Z,1012.9
2018-11-13T08:27:00.922Z,1012.92
2018-11-13T08:28:00.951Z,1012.83
2018-11-13T08:29:01.038Z,1012.88
2018-11-13T08:30:00.833Z,1012.8
2018-11-13T08:31:00.819Z,1012.83
2018-11-13T08:32:00.802Z,1012.81
2018-11-13T08:33:00.785Z,1012.81
2018-11-13T08:34:00.766Z,1012.79
2018-11-13T08:35:00.801Z,1012.77
2018-11-13T08:36:00.733Z,1012.69
2018-11-13T08:37:00.719Z,1012.72
2018-11-13T08:38:00.701Z,1012.8
2018-11-13T08:39:00.683Z,1012.87
2018-11-13T08:40:00.668Z,1012.84
2018-11-13T08:41:00.651Z,1012.79
2018-11-13T08:42:00.633Z,1012.88
2018-11-13T08:43:00.628Z,1012.91
2018-11-13T08:44:00.660Z,1012.89
2018-11-13T08:45:00.585Z,1012.9
2018-11-13T08:46:00.575Z,1012.88
2018-11-13T08:47:00.550Z,1012.9
2018-11-13T08:48:00.536Z,1012.93
2018-11-13T08:49:00.518Z,1013
2018-11-13T08:50:00.503Z,1012.92
2018-11-13T08:51:00.485Z,1012.95
2018-11-13T08:52:00.468Z,1013
2018-11-13T08:53:00.453Z,1012.99
2018-11-13T08:54:00.639Z,1013.01
2018-11-13T08:55:00.421Z,1013.01
2018-11-13T08:56:00.405Z,1013.03
2018-11-13T08:57:00.392Z,1013.04
2018-11-13T08:58:00.372Z,1013.13
2018-11-13T08:59:00.467Z,1013.14
2018-11-13T09:00:00.353Z,1013.14
2018-11-13T09:01:00.325Z,1013.17
2018-11-13T09:02:00.311Z,1013.12
2018-11-13T09:03:00.292Z,1013.11
2018-11-13T09:04:00.276Z,1013.11
2018-11-13T09:05:00.351Z,1013.15
2018-11-13T09:06:00.244Z,1013.24
2018-11-13T09:07:00.232Z,1013.1
2018-11-13T09:08:00.212Z,1013.22
2018-11-13T09:09:00.201Z,1013.21
2018-11-13T09:10:00.185Z,1013.24
2018-11-13T09:11:00.164Z,1013.24
2018-11-13T09:12:00.306Z,1013.22
2018-11-13T09:13:00.133Z,1013.26
2018-11-13T09:14:00.117Z,1013.24
2018-11-13T09:15:00.108Z,1013.3
2018-11-13T09:16:00.086Z,1013.35
2018-11-13T09:17:00.068Z,1013.4
2018-11-13T09:18:00.081Z,1013.33
2018-11-13T09:19:00.054Z,1013.27
2018-11-13T09:20:00.029Z,1013.32
2018-11-13T09:21:00.010Z,1013.42
2018-11-13T09:21:59.991Z,1013.35
2018-11-13T09:22:59.973Z,1013.42
2018-11-13T09:23:59.961Z,1013.45
2018-11-13T09:24:59.940Z,1013.42
2018-11-13T09:25:59.925Z,1013.47
2018-11-13T09:26:59.908Z,1013.42
2018-11-13T09:27:59.893Z,1013.43
2018-11-13T09:28:59.875Z,1013.46
2018-11-13T09:29:59.905Z,1013.44
2018-11-13T09:31:00.114Z,1013.45
2018-11-13T09:31:59.832Z,1013.38
2018-11-13T09:32:59.832Z,1013.39
2018-11-13T09:33:59.797Z,1013.46
2018-11-13T09:34:59.781Z,1013.44
2018-11-13T09:35:59.765Z,1013.49
2018-11-13T09:36:59.752Z,1013.48
2018-11-13T09:37:59.733Z,1013.51
2018-11-13T09:38:59.718Z,1013.49
2018-11-13T09:39:59.701Z,1013.48
2018-11-13T09:40:59.685Z,1013.45
2018-11-13T09:41:59.672Z,1013.45
2018-11-13T09:42:59.654Z,1013.43
2018-11-13T09:43:59.637Z,1013.45
2018-11-13T09:44:59.706Z,1013.47
2018-11-13T09:45:59.678Z,1013.44
2018-11-13T09:46:59.589Z,1013.51
2018-11-13T09:47:59.570Z,1013.55
2018-11-13T09:48:59.555Z,1013.61
2018-11-13T09:49:59.539Z,1013.55
2018-11-13T09:50:59.523Z,1013.59
2018-11-13T09:51:59.506Z,1013.59
2018-11-13T09:52:59.492Z,1013.62
2018-11-13T09:53:59.490Z,1013.62
2018-11-13T09:54:59.463Z,1013.6
2018-11-13T09:55:59.446Z,1013.67
2018-11-13T09:56:59.428Z,1013.68
2018-11-13T09:57:59.413Z,1013.68
2018-11-13T09:58:59.423Z,1013.61
2018-11-13T09:59:59.485Z,1013.67
2018-11-13T10:00:59.587Z,1013.64
2018-11-13T10:01:59.780Z,1013.64
2018-11-13T10:02:59.909Z,1013.64
2018-11-13T10:03:59.715Z,1013.62
2018-11-13T10:05:00.174Z,1013.72
2018-11-13T10:05:59.380Z,1013.64
2018-11-13T10:06:59.346Z,1013.63
2018-11-13T10:07:59.258Z,1013.64
2018-11-13T10:08:59.252Z,1013.67
2018-11-13T10:09:59.227Z,1013.63
2018-11-13T10:10:59.209Z,1013.65
2018-11-13T10:11:59.193Z,1013.66
2018-11-13T10:12:59.179Z,1013.63
2018-11-13T10:13:59.164Z,1013.68
2018-11-13T10:14:59.148Z,1013.6
2018-11-13T10:15:59.133Z,1013.6
2018-11-13T10:16:59.119Z,1013.72
2018-11-13T10:17:59.305Z,1013.64
2018-11-13T10:18:59.087Z,1013.62
2018-11-13T10:19:59.073Z,1013.78
2018-11-13T10:20:59.059Z,1013.65
2018-11-13T10:21:59.040Z,1013.66
2018-11-13T10:22:59.043Z,1013.6
2018-11-13T10:23:59.014Z,1013.68
2018-11-13T10:24:58.998Z,1013.67
2018-11-13T10:25:58.985Z,1013.62
2018-11-13T10:26:58.985Z,1013.69
2018-11-13T10:27:58.956Z,1013.64
2018-11-13T10:28:58.954Z,1013.66
2018-11-13T10:29:58.976Z,1013.61
2018-11-13T10:30:58.917Z,1013.67
2018-11-13T10:31:58.902Z,1013.65
2018-11-13T10:32:58.894Z,1013.74
2018-11-13T10:33:58.889Z,1013.65
2018-11-13T10:34:58.864Z,1013.7
2018-11-13T10:35:58.849Z,1013.67
2018-11-13T10:36:58.837Z,1013.61
2018-11-13T10:37:58.825Z,1013.67
2018-11-13T10:38:58.812Z,1013.67
2018-11-13T10:39:58.842Z,1013.61
2018-11-13T10:40:58.954Z,1013.66
2018-11-13T10:41:58.777Z,1013.65
2018-11-13T10:42:58.761Z,1013.64
2018-11-13T10:43:58.748Z,1013.64
2018-11-13T10:44:58.739Z,1013.68
2018-11-13T10:45:58.723Z,1013.68
2018-11-13T10:46:58.741Z,1013.68
2018-11-13T10:47:58.698Z,1013.68
2018-11-13T10:48:58.785Z,1013.75
2018-11-13T10:49:58.671Z,1013.73
2018-11-13T10:50:58.660Z,1013.56
2018-11-13T10:51:58.646Z,1013.67
2018-11-13T10:52:58.635Z,1013.64
2018-11-13T10:53:58.618Z,1013.71
2018-11-13T10:54:58.610Z,1013.74
2018-11-13T10:55:58.597Z,1013.64
2018-11-13T10:56:58.582Z,1013.65
2018-11-13T10:57:58.568Z,1013.57
2018-11-13T10:58:58.556Z,1013.59
2018-11-13T10:59:58.545Z,1013.56
2018-11-13T11:00:58.528Z,1013.51
2018-11-13T11:01:58.516Z,1013.49
2018-11-13T11:02:58.647Z,1013.52
2018-11-13T11:03:58.489Z,1013.55
2018-11-13T11:04:58.475Z,1013.45
2018-11-13T11:05:58.463Z,1013.38
2018-11-13T11:06:58.448Z,1013.43
2018-11-13T11:07:58.436Z,1013.41
2018-11-13T11:08:58.422Z,1013.46
2018-11-13T11:09:58.408Z,1013.42
2018-11-13T11:10:58.393Z,1013.45
2018-11-13T11:11:58.379Z,1013.57
2018-11-13T11:12:58.570Z,1013.53
2018-11-13T11:13:58.534Z,1013.59
2018-11-13T11:14:58.336Z,1013.51
2018-11-13T11:15:58.321Z,1013.49
2018-11-13T11:16:58.309Z,1013.51
2018-11-13T11:17:58.355Z,1013.46
2018-11-13T11:18:58.605Z,1013.48
2018-11-13T11:19:58.263Z,1013.36
2018-11-13T11:20:58.261Z,1013.51
2018-11-13T11:21:58.243Z,1013.45
2018-11-13T11:22:58.286Z,1013.41
2018-11-13T11:23:58.234Z,1013.48
2018-11-13T11:24:58.203Z,1013.48
2018-11-13T11:25:58.179Z,1013.47
2018-11-13T11:26:58.153Z,1013.52
2018-11-13T11:27:58.168Z,1013.49
2018-11-13T11:28:58.122Z,1013.48
2018-11-13T11:29:58.104Z,1013.4
2018-11-13T11:30:58.132Z,1013.51
2018-11-13T11:31:58.073Z,1013.54
2018-11-13T11:32:58.055Z,1013.53
2018-11-13T11:33:58.053Z,1013.45
2018-11-13T11:34:58.024Z,1013.47
2018-11-13T11:35:58.007Z,1013.41
2018-11-13T11:36:57.994Z,1013.5
2018-11-13T11:37:57.975Z,1013.44
2018-11-13T11:38:58.131Z,1013.46
2018-11-13T11:39:57.948Z,1013.43
2018-11-13T11:40:57.951Z,1013.33
2018-11-13T11:41:57.909Z,1013.39
2018-11-13T11:42:57.894Z,1013.4
2018-11-13T11:43:57.883Z,1013.41
2018-11-13T11:44:57.859Z,1013.47
2018-11-13T11:45:57.843Z,1013.5
2018-11-13T11:46:57.826Z,1013.55
2018-11-13T11:47:57.810Z,1013.51
2018-11-13T11:48:57.794Z,1013.49
2018-11-13T11:49:57.776Z,1013.52
2018-11-13T11:50:57.761Z,1013.57
2018-11-13T11:51:57.742Z,1013.58
2018-11-13T11:52:57.726Z,1013.62
2018-11-13T11:53:57.779Z,1013.77
2018-11-13T11:54:57.692Z,1013.85
2018-11-13T11:55:57.674Z,1014.07
2018-11-13T11:56:57.665Z,1014.13
2018-11-13T11:57:57.640Z,1014.16
2018-11-13T11:58:57.625Z,1014
2018-11-13T11:59:57.605Z,1013.97
2018-11-13T12:00:57.595Z,1014.05
2018-11-13T12:01:57.571Z,1014.01
2018-11-13T12:02:57.554Z,1014.01
2018-11-13T12:03:57.568Z,1013.99
2018-11-13T12:04:57.520Z,1013.99
2018-11-13T12:05:57.505Z,1014.09
2018-11-13T12:06:57.489Z,1014.08
2018-11-13T12:07:57.468Z,1014.17